CheckWX is a tool to help pilots better visualize weather data.  It is not intended as a substitute for an official pre-flight weather briefing.

19:02:34 UTC

KUGN METAR
Waukegan National Airport
Chicago/Waukegan, Illinois, USA
Current

8 mins ago

KUGN 191855Z 04006KT 7SM OVC005 15/13 A2978 RMK AO2 RAB1759E41 SLP079 P0000 T01500133
Observed
Jun-19 @ 18:55 UTC
Wind
  • 040° at 6 KTS
Visibility
7 SM
Flight Rules
IFR
Cloud Levels
  • Overcast at 500' AGL
Temperature
15°C / 59°F
Dewpoint
13°C / 55°F
Humidity
88%
Altimeter
29.78" Hg
Pressure
1008.42 hPa
Current Rain
0.01"
Previous

56 mins ago

KUGN 191807Z 04007KT 5SM -RA BR OVC004 15/13 A2979 RMK AO2 RAB1759 P0000 T01500133
Observed
Jun-19 @ 18:07 UTC
Wind
  • 040° at 7 KTS
Visibility
5 SM
Flight Rules
LIFR
Conditions
Light Rain, Mist
Cloud Levels
  • Overcast at 400' AGL
Temperature
15°C / 59°F
Dewpoint
13°C / 55°F
Humidity
88%
Altimeter
29.79" Hg
Pressure
1008.82 hPa
Current Rain
0.01"
Previous

1 hour ago

KUGN 191755Z 03008KT 5SM BR OVC004 15/13 A2978 RMK AO2 RAE39 SLP082 P0000 60001 T01500133 10183 20144 58008
Observed
Jun-19 @ 17:55 UTC
Wind
  • 030° at 8 KTS
Visibility
5 SM
Flight Rules
LIFR
Conditions
Mist
Cloud Levels
  • Overcast at 400' AGL
Temperature
15°C / 59°F
Dewpoint
13°C / 55°F
Humidity
88%
Altimeter
29.78" Hg
Pressure
1008.42 hPa
Current Rain
0.01"